sensor_id;sensor_type;location;lat;lon;timestamp;P1;durP1;ratioP1;P2;durP2;ratioP2
34896;SDS011;43407;51.828;-2.298;2023-02-15T00:00:53;14.20;;;12.07;;
34896;SDS011;43407;51.828;-2.298;2023-02-15T00:03:21;17.15;;;12.30;;
34896;SDS011;43407;51.828;-2.298;2023-02-15T00:05:47;17.52;;;12.02;;
34896;SDS011;43407;51.828;-2.298;2023-02-15T00:08:12;16.98;;;12.18;;
34896;SDS011;43407;51.828;-2.298;2023-02-15T00:10:38;16.63;;;12.25;;
34896;SDS011;43407;51.828;-2.298;2023-02-15T00:13:03;14.38;;;11.98;;
34896;SDS011;43407;51.828;-2.298;2023-02-15T00:15:29;13.95;;;11.32;;
34896;SDS011;43407;51.828;-2.298;2023-02-15T00:17:56;18.23;;;12.40;;
34896;SDS011;43407;51.828;-2.298;2023-02-15T00:20:22;16.65;;;13.02;;
34896;SDS011;43407;51.828;-2.298;2023-02-15T00:22:47;17.67;;;11.48;;
34896;SDS011;43407;51.828;-2.298;2023-02-15T00:25:13;15.98;;;11.70;;
34896;SDS011;43407;51.828;-2.298;2023-02-15T00:27:38;16.40;;;11.98;;
34896;SDS011;43407;51.828;-2.298;2023-02-15T00:30:04;14.05;;;10.43;;
34896;SDS011;43407;51.828;-2.298;2023-02-15T00:32:30;15.50;;;11.70;;
34896;SDS011;43407;51.828;-2.298;2023-02-15T00:34:56;20.45;;;15.02;;
34896;SDS011;43407;51.828;-2.298;2023-02-15T00:37:22;18.65;;;14.02;;
34896;SDS011;43407;51.828;-2.298;2023-02-15T00:39:47;21.23;;;14.40;;
34896;SDS011;43407;51.828;-2.298;2023-02-15T00:42:13;18.42;;;13.52;;
34896;SDS011;43407;51.828;-2.298;2023-02-15T00:44:38;18.27;;;13.93;;
34896;SDS011;43407;51.828;-2.298;2023-02-15T00:47:04;16.52;;;13.25;;
34896;SDS011;43407;51.828;-2.298;2023-02-15T00:49:29;21.38;;;15.77;;
34896;SDS011;43407;51.828;-2.298;2023-02-15T00:51:55;21.20;;;14.25;;
34896;SDS011;43407;51.828;-2.298;2023-02-15T00:54:20;18.70;;;13.68;;
34896;SDS011;43407;51.828;-2.298;2023-02-15T00:56:46;17.65;;;13.18;;
34896;SDS011;43407;51.828;-2.298;2023-02-15T00:59:11;21.42;;;15.57;;
34896;SDS011;43407;51.828;-2.298;2023-02-15T01:01:37;17.08;;;12.27;;
34896;SDS011;43407;51.828;-2.298;2023-02-15T01:04:02;19.33;;;13.57;;
34896;SDS011;43407;51.828;-2.298;2023-02-15T01:06:28;17.02;;;12.15;;
34896;SDS011;43407;51.828;-2.298;2023-02-15T01:08:54;15.80;;;12.10;;
34896;SDS011;43407;51.828;-2.298;2023-02-15T01:11:21;15.38;;;12.45;;
34896;SDS011;43407;51.828;-2.298;2023-02-15T01:13:50;18.38;;;12.98;;
34896;SDS011;43407;51.828;-2.298;2023-02-15T01:16:17;13.85;;;10.57;;
34896;SDS011;43407;51.828;-2.298;2023-02-15T01:18:43;15.35;;;11.43;;
34896;SDS011;43407;51.828;-2.298;2023-02-15T01:21:12;15.75;;;11.80;;
34896;SDS011;43407;51.828;-2.298;2023-02-15T01:23:40;17.55;;;12.25;;
34896;SDS011;43407;51.828;-2.298;2023-02-15T01:26:07;21.75;;;15.88;;
34896;SDS011;43407;51.828;-2.298;2023-02-15T01:28:33;20.75;;;16.02;;
34896;SDS011;43407;51.828;-2.298;2023-02-15T01:30:59;20.08;;;15.13;;
34896;SDS011;43407;51.828;-2.298;2023-02-15T01:33:24;22.30;;;15.52;;
34896;SDS011;43407;51.828;-2.298;2023-02-15T01:35:57;19.27;;;14.85;;
34896;SDS011;43407;51.828;-2.298;2023-02-15T01:38:22;19.20;;;13.75;;
34896;SDS011;43407;51.828;-2.298;2023-02-15T01:40:50;17.63;;;13.30;;
34896;SDS011;43407;51.828;-2.298;2023-02-15T01:43:17;18.48;;;14.00;;
34896;SDS011;43407;51.828;-2.298;2023-02-15T01:45:43;21.10;;;14.82;;
34896;SDS011;43407;51.828;-2.298;2023-02-15T01:48:24;24.42;;;17.02;;
34896;SDS011;43407;51.828;-2.298;2023-02-15T01:50:53;23.73;;;17.20;;
34896;SDS011;43407;51.828;-2.298;2023-02-15T01:53:25;26.88;;;18.77;;
34896;SDS011;43407;51.828;-2.298;2023-02-15T01:58:30;23.23;;;17.02;;
34896;SDS011;43407;51.828;-2.298;2023-02-15T02:00:58;21.88;;;15.90;;
34896;SDS011;43407;51.828;-2.298;2023-02-15T02:03:50;21.77;;;15.15;;
34896;SDS011;43407;51.828;-2.298;2023-02-15T02:06:26;22.15;;;15.82;;
34896;SDS011;43407;51.828;-2.298;2023-02-15T02:08:55;17.60;;;14.45;;
34896;SDS011;43407;51.828;-2.298;2023-02-15T02:11:21;21.02;;;15.85;;
34896;SDS011;43407;51.828;-2.298;2023-02-15T02:13:47;21.75;;;14.93;;
34896;SDS011;43407;51.828;-2.298;2023-02-15T02:16:17;21.55;;;14.35;;
34896;SDS011;43407;51.828;-2.298;2023-02-15T02:19:15;23.98;;;15.20;;
34896;SDS011;43407;51.828;-2.298;2023-02-15T02:35:27;21.90;;;16.10;;
34896;SDS011;43407;51.828;-2.298;2023-02-15T02:38:20;22.92;;;17.25;;
34896;SDS011;43407;51.828;-2.298;2023-02-15T02:48:27;17.05;;;12.73;;
34896;SDS011;43407;51.828;-2.298;2023-02-15T02:50:55;24.73;;;16.95;;
34896;SDS011;43407;51.828;-2.298;2023-02-15T02:53:21;23.55;;;17.58;;
34896;SDS011;43407;51.828;-2.298;2023-02-15T02:55:47;24.02;;;16.25;;
34896;SDS011;43407;51.828;-2.298;2023-02-15T03:01:00;24.70;;;17.73;;
34896;SDS011;43407;51.828;-2.298;2023-02-15T03:03:39;24.27;;;17.88;;
34896;SDS011;43407;51.828;-2.298;2023-02-15T03:06:12;21.70;;;16.17;;
34896;SDS011;43407;51.828;-2.298;2023-02-15T03:09:18;24.85;;;17.67;;
34896;SDS011;43407;51.828;-2.298;2023-02-15T03:11:40;25.30;;;17.83;;
34896;SDS011;43407;51.828;-2.298;2023-02-15T03:14:09;20.83;;;16.73;;
34896;SDS011;43407;51.828;-2.298;2023-02-15T03:16:34;24.02;;;18.00;;
34896;SDS011;43407;51.828;-2.298;2023-02-15T03:19:11;23.15;;;18.02;;
34896;SDS011;43407;51.828;-2.298;2023-02-15T03:21:40;25.80;;;18.30;;
34896;SDS011;43407;51.828;-2.298;2023-02-15T03:24:45;24.15;;;17.95;;
34896;SDS011;43407;51.828;-2.298;2023-02-15T03:27:15;24.38;;;17.02;;
34896;SDS011;43407;51.828;-2.298;2023-02-15T03:29:44;21.30;;;17.25;;
34896;SDS011;43407;51.828;-2.298;2023-02-15T03:32:11;24.33;;;17.70;;
34896;SDS011;43407;51.828;-2.298;2023-02-15T03:34:39;27.17;;;18.33;;
34896;SDS011;43407;51.828;-2.298;2023-02-15T03:43:14;19.00;;;14.32;;
34896;SDS011;43407;51.828;-2.298;2023-02-15T03:45:44;24.67;;;15.82;;
34896;SDS011;43407;51.828;-2.298;2023-02-15T03:48:21;17.67;;;13.65;;
34896;SDS011;43407;51.828;-2.298;2023-02-15T03:50:48;18.02;;;13.25;;
34896;SDS011;43407;51.828;-2.298;2023-02-15T03:53:32;20.48;;;15.90;;
34896;SDS011;43407;51.828;-2.298;2023-02-15T03:55:58;30.23;;;22.55;;
34896;SDS011;43407;51.828;-2.298;2023-02-15T03:58:24;25.63;;;18.70;;
34896;SDS011;43407;51.828;-2.298;2023-02-15T04:01:13;29.17;;;20.17;;
34896;SDS011;43407;51.828;-2.298;2023-02-15T04:04:11;29.90;;;21.60;;
34896;SDS011;43407;51.828;-2.298;2023-02-15T04:06:42;30.45;;;21.27;;
34896;SDS011;43407;51.828;-2.298;2023-02-15T04:09:08;28.27;;;20.10;;
34896;SDS011;43407;51.828;-2.298;2023-02-15T04:11:52;30.45;;;21.23;;
34896;SDS011;43407;51.828;-2.298;2023-02-15T04:14:18;26.63;;;19.52;;
34896;SDS011;43407;51.828;-2.298;2023-02-15T04:17:04;28.45;;;20.02;;
34896;SDS011;43407;51.828;-2.298;2023-02-15T04:19:31;28.98;;;20.45;;
34896;SDS011;43407;51.828;-2.298;2023-02-15T04:24:59;32.38;;;20.63;;
34896;SDS011;43407;51.828;-2.298;2023-02-15T04:27:42;27.05;;;20.00;;
34896;SDS011;43407;51.828;-2.298;2023-02-15T04:30:13;26.17;;;18.50;;
34896;SDS011;43407;51.828;-2.298;2023-02-15T04:32:39;23.88;;;17.23;;
34896;SDS011;43407;51.828;-2.298;2023-02-15T04:35:05;27.50;;;19.25;;
34896;SDS011;43407;51.828;-2.298;2023-02-15T04:37:31;23.23;;;17.23;;
34896;SDS011;43407;51.828;-2.298;2023-02-15T04:39:57;26.00;;;18.45;;
34896;SDS011;43407;51.828;-2.298;2023-02-15T04:42:26;25.17;;;17.42;;
34896;SDS011;43407;51.828;-2.298;2023-02-15T04:44:52;26.77;;;18.77;;
34896;SDS011;43407;51.828;-2.298;2023-02-15T04:47:18;21.90;;;16.50;;
34896;SDS011;43407;51.828;-2.298;2023-02-15T04:49:43;30.40;;;20.02;;
34896;SDS011;43407;51.828;-2.298;2023-02-15T04:52:09;25.38;;;17.58;;
34896;SDS011;43407;51.828;-2.298;2023-02-15T04:54:35;24.38;;;16.90;;
34896;SDS011;43407;51.828;-2.298;2023-02-15T04:57:00;28.30;;;18.73;;
34896;SDS011;43407;51.828;-2.298;2023-02-15T04:59:26;26.67;;;18.92;;
34896;SDS011;43407;51.828;-2.298;2023-02-15T05:01:52;27.08;;;19.27;;
34896;SDS011;43407;51.828;-2.298;2023-02-15T05:04:17;27.15;;;19.77;;
34896;SDS011;43407;51.828;-2.298;2023-02-15T05:06:43;32.78;;;21.50;;
34896;SDS011;43407;51.828;-2.298;2023-02-15T05:09:09;31.00;;;20.02;;
34896;SDS011;43407;51.828;-2.298;2023-02-15T05:11:36;29.90;;;21.88;;
34896;SDS011;43407;51.828;-2.298;2023-02-15T05:14:01;31.40;;;22.13;;
34896;SDS011;43407;51.828;-2.298;2023-02-15T05:16:27;31.65;;;21.98;;
34896;SDS011;43407;51.828;-2.298;2023-02-15T05:18:52;29.95;;;21.55;;
34896;SDS011;43407;51.828;-2.298;2023-02-15T05:21:18;32.88;;;23.05;;
34896;SDS011;43407;51.828;-2.298;2023-02-15T05:23:44;31.00;;;23.10;;
34896;SDS011;43407;51.828;-2.298;2023-02-15T05:26:16;32.65;;;22.30;;
34896;SDS011;43407;51.828;-2.298;2023-02-15T05:29:01;31.40;;;21.58;;
34896;SDS011;43407;51.828;-2.298;2023-02-15T05:31:27;29.80;;;21.20;;
34896;SDS011;43407;51.828;-2.298;2023-02-15T05:33:52;30.60;;;21.73;;
34896;SDS011;43407;51.828;-2.298;2023-02-15T05:36:18;32.28;;;22.42;;
34896;SDS011;43407;51.828;-2.298;2023-02-15T05:38:43;29.65;;;21.30;;
34896;SDS011;43407;51.828;-2.298;2023-02-15T05:41:10;30.67;;;20.30;;
34896;SDS011;43407;51.828;-2.298;2023-02-15T05:43:35;29.73;;;20.63;;
34896;SDS011;43407;51.828;-2.298;2023-02-15T05:46:01;32.47;;;21.88;;
34896;SDS011;43407;51.828;-2.298;2023-02-15T05:48:28;29.88;;;21.27;;
34896;SDS011;43407;51.828;-2.298;2023-02-15T05:50:57;29.15;;;20.23;;
34896;SDS011;43407;51.828;-2.298;2023-02-15T05:53:23;47.25;;;20.88;;
34896;SDS011;43407;51.828;-2.298;2023-02-15T05:55:48;32.88;;;19.98;;
34896;SDS011;43407;51.828;-2.298;2023-02-15T05:58:14;29.85;;;19.35;;
34896;SDS011;43407;51.828;-2.298;2023-02-15T06:00:39;29.60;;;20.40;;
34896;SDS011;43407;51.828;-2.298;2023-02-15T06:03:05;31.65;;;21.48;;
34896;SDS011;43407;51.828;-2.298;2023-02-15T06:05:30;28.50;;;20.80;;
34896;SDS011;43407;51.828;-2.298;2023-02-15T06:07:56;31.08;;;21.58;;
34896;SDS011;43407;51.828;-2.298;2023-02-15T06:10:22;30.63;;;21.08;;
34896;SDS011;43407;51.828;-2.298;2023-02-15T06:12:47;31.63;;;22.50;;
34896;SDS011;43407;51.828;-2.298;2023-02-15T06:15:13;32.13;;;22.20;;
34896;SDS011;43407;51.828;-2.298;2023-02-15T06:17:40;29.00;;;21.55;;
34896;SDS011;43407;51.828;-2.298;2023-02-15T06:20:07;34.33;;;23.80;;
34896;SDS011;43407;51.828;-2.298;2023-02-15T06:22:33;37.15;;;23.73;;
34896;SDS011;43407;51.828;-2.298;2023-02-15T06:24:59;32.10;;;20.85;;
34896;SDS011;43407;51.828;-2.298;2023-02-15T06:27:24;35.22;;;24.20;;
34896;SDS011;43407;51.828;-2.298;2023-02-15T06:29:50;36.88;;;25.20;;
34896;SDS011;43407;51.828;-2.298;2023-02-15T06:32:15;33.40;;;24.02;;
34896;SDS011;43407;51.828;-2.298;2023-02-15T06:34:41;32.40;;;22.88;;
34896;SDS011;43407;51.828;-2.298;2023-02-15T06:37:06;34.38;;;23.60;;
34896;SDS011;43407;51.828;-2.298;2023-02-15T06:39:33;36.83;;;24.63;;
34896;SDS011;43407;51.828;-2.298;2023-02-15T06:41:59;34.22;;;23.67;;
34896;SDS011;43407;51.828;-2.298;2023-02-15T06:44:25;32.03;;;22.38;;
34896;SDS011;43407;51.828;-2.298;2023-02-15T06:46:50;33.45;;;22.98;;
34896;SDS011;43407;51.828;-2.298;2023-02-15T06:49:16;30.63;;;22.25;;
34896;SDS011;43407;51.828;-2.298;2023-02-15T06:51:41;30.00;;;21.15;;
34896;SDS011;43407;51.828;-2.298;2023-02-15T06:54:07;35.30;;;24.08;;
34896;SDS011;43407;51.828;-2.298;2023-02-15T06:56:32;31.52;;;22.42;;
34896;SDS011;43407;51.828;-2.298;2023-02-15T06:58:58;31.90;;;21.52;;
34896;SDS011;43407;51.828;-2.298;2023-02-15T07:01:23;35.75;;;23.38;;
34896;SDS011;43407;51.828;-2.298;2023-02-15T07:03:49;33.67;;;23.65;;
34896;SDS011;43407;51.828;-2.298;2023-02-15T07:06:15;33.60;;;23.77;;
34896;SDS011;43407;51.828;-2.298;2023-02-15T07:08:40;33.63;;;24.63;;
34896;SDS011;43407;51.828;-2.298;2023-02-15T07:11:06;36.58;;;23.67;;
34896;SDS011;43407;51.828;-2.298;2023-02-15T07:13:51;33.55;;;24.10;;
34896;SDS011;43407;51.828;-2.298;2023-02-15T07:16:17;32.38;;;23.40;;
34896;SDS011;43407;51.828;-2.298;2023-02-15T07:18:43;36.30;;;23.23;;
34896;SDS011;43407;51.828;-2.298;2023-02-15T07:21:09;33.03;;;23.05;;
34896;SDS011;43407;51.828;-2.298;2023-02-15T07:23:35;33.30;;;23.63;;
34896;SDS011;43407;51.828;-2.298;2023-02-15T07:26:01;34.42;;;22.67;;
34896;SDS011;43407;51.828;-2.298;2023-02-15T07:28:27;32.10;;;22.58;;
34896;SDS011;43407;51.828;-2.298;2023-02-15T07:30:53;32.60;;;22.50;;
34896;SDS011;43407;51.828;-2.298;2023-02-15T07:33:19;32.70;;;23.92;;
34896;SDS011;43407;51.828;-2.298;2023-02-15T07:35:56;32.35;;;22.73;;
34896;SDS011;43407;51.828;-2.298;2023-02-15T07:38:23;33.30;;;23.23;;
34896;SDS011;43407;51.828;-2.298;2023-02-15T07:40:50;30.35;;;20.75;;
34896;SDS011;43407;51.828;-2.298;2023-02-15T07:43:16;29.42;;;21.33;;
34896;SDS011;43407;51.828;-2.298;2023-02-15T07:45:42;38.00;;;25.42;;
34896;SDS011;43407;51.828;-2.298;2023-02-15T07:48:08;36.28;;;25.50;;
34896;SDS011;43407;51.828;-2.298;2023-02-15T07:50:33;31.75;;;20.95;;
34896;SDS011;43407;51.828;-2.298;2023-02-15T07:53:01;38.70;;;25.65;;
34896;SDS011;43407;51.828;-2.298;2023-02-15T07:55:27;34.42;;;24.42;;
34896;SDS011;43407;51.828;-2.298;2023-02-15T07:57:53;33.08;;;23.38;;
34896;SDS011;43407;51.828;-2.298;2023-02-15T08:00:19;33.40;;;23.23;;
34896;SDS011;43407;51.828;-2.298;2023-02-15T08:02:53;35.63;;;23.88;;
34896;SDS011;43407;51.828;-2.298;2023-02-15T08:05:42;36.03;;;23.25;;
34896;SDS011;43407;51.828;-2.298;2023-02-15T08:08:09;38.25;;;26.00;;
34896;SDS011;43407;51.828;-2.298;2023-02-15T08:10:57;51.60;;;34.10;;
34896;SDS011;43407;51.828;-2.298;2023-02-15T08:13:48;49.70;;;33.17;;
34896;SDS011;43407;51.828;-2.298;2023-02-15T08:16:25;50.25;;;34.45;;
34896;SDS011;43407;51.828;-2.298;2023-02-15T08:18:55;55.58;;;36.08;;
34896;SDS011;43407;51.828;-2.298;2023-02-15T08:21:21;57.13;;;39.28;;
34896;SDS011;43407;51.828;-2.298;2023-02-15T08:23:47;54.05;;;36.53;;
34896;SDS011;43407;51.828;-2.298;2023-02-15T08:26:13;56.83;;;39.53;;
34896;SDS011;43407;51.828;-2.298;2023-02-15T08:28:39;54.30;;;36.45;;
34896;SDS011;43407;51.828;-2.298;2023-02-15T08:31:09;54.40;;;37.38;;
34896;SDS011;43407;51.828;-2.298;2023-02-15T08:33:36;59.05;;;39.22;;
34896;SDS011;43407;51.828;-2.298;2023-02-15T08:36:07;61.83;;;41.55;;
34896;SDS011;43407;51.828;-2.298;2023-02-15T08:38:34;54.10;;;36.65;;
34896;SDS011;43407;51.828;-2.298;2023-02-15T08:41:10;60.25;;;40.90;;
34896;SDS011;43407;51.828;-2.298;2023-02-15T08:43:38;58.63;;;40.30;;
34896;SDS011;43407;51.828;-2.298;2023-02-15T08:46:04;62.53;;;40.58;;
34896;SDS011;43407;51.828;-2.298;2023-02-15T08:48:30;55.45;;;39.42;;
34896;SDS011;43407;51.828;-2.298;2023-02-15T08:50:56;62.67;;;42.08;;
34896;SDS011;43407;51.828;-2.298;2023-02-15T08:53:21;58.90;;;40.85;;
34896;SDS011;43407;51.828;-2.298;2023-02-15T08:55:54;55.65;;;38.17;;
34896;SDS011;43407;51.828;-2.298;2023-02-15T08:58:23;53.55;;;38.13;;
34896;SDS011;43407;51.828;-2.298;2023-02-15T09:00:49;57.70;;;38.55;;
34896;SDS011;43407;51.828;-2.298;2023-02-15T09:03:15;52.20;;;36.42;;
34896;SDS011;43407;51.828;-2.298;2023-02-15T09:05:41;59.55;;;39.95;;
34896;SDS011;43407;51.828;-2.298;2023-02-15T09:08:06;56.38;;;38.10;;
34896;SDS011;43407;51.828;-2.298;2023-02-15T09:10:32;56.60;;;39.75;;
34896;SDS011;43407;51.828;-2.298;2023-02-15T09:12:57;51.72;;;36.88;;
34896;SDS011;43407;51.828;-2.298;2023-02-15T09:15:23;55.10;;;37.92;;
34896;SDS011;43407;51.828;-2.298;2023-02-15T09:17:48;59.67;;;39.55;;
34896;SDS011;43407;51.828;-2.298;2023-02-15T09:20:14;52.40;;;35.65;;
34896;SDS011;43407;51.828;-2.298;2023-02-15T09:22:39;50.22;;;33.90;;
34896;SDS011;43407;51.828;-2.298;2023-02-15T09:25:06;52.63;;;34.97;;
34896;SDS011;43407;51.828;-2.298;2023-02-15T09:27:32;49.88;;;32.38;;
34896;SDS011;43407;51.828;-2.298;2023-02-15T09:29:58;49.97;;;32.65;;
34896;SDS011;43407;51.828;-2.298;2023-02-15T09:32:24;44.42;;;32.00;;
34896;SDS011;43407;51.828;-2.298;2023-02-15T09:34:49;43.42;;;31.83;;
34896;SDS011;43407;51.828;-2.298;2023-02-15T09:37:15;46.85;;;32.35;;
34896;SDS011;43407;51.828;-2.298;2023-02-15T09:39:41;43.20;;;31.60;;
34896;SDS011;43407;51.828;-2.298;2023-02-15T09:42:25;44.40;;;32.65;;
34896;SDS011;43407;51.828;-2.298;2023-02-15T09:56:39;35.92;;;28.08;;
34896;SDS011;43407;51.828;-2.298;2023-02-15T10:10:12;38.08;;;27.98;;
34896;SDS011;43407;51.828;-2.298;2023-02-15T10:26:42;33.90;;;24.88;;
34896;SDS011;43407;51.828;-2.298;2023-02-15T10:29:14;34.17;;;25.85;;
34896;SDS011;43407;51.828;-2.298;2023-02-15T10:31:55;32.47;;;25.20;;
34896;SDS011;43407;51.828;-2.298;2023-02-15T10:34:32;28.58;;;21.88;;
34896;SDS011;43407;51.828;-2.298;2023-02-15T10:45:15;23.42;;;18.25;;
34896;SDS011;43407;51.828;-2.298;2023-02-15T10:48:01;22.42;;;17.50;;
34896;SDS011;43407;51.828;-2.298;2023-02-15T10:50:47;25.67;;;18.30;;
34896;SDS011;43407;51.828;-2.298;2023-02-15T10:55:51;25.10;;;17.33;;
34896;SDS011;43407;51.828;-2.298;2023-02-15T11:06:35;20.23;;;15.48;;
34896;SDS011;43407;51.828;-2.298;2023-02-15T11:09:07;23.25;;;15.73;;
34896;SDS011;43407;51.828;-2.298;2023-02-15T11:11:39;21.70;;;15.65;;
34896;SDS011;43407;51.828;-2.298;2023-02-15T11:16:52;24.50;;;16.15;;
34896;SDS011;43407;51.828;-2.298;2023-02-15T11:19:28;21.40;;;14.82;;
34896;SDS011;43407;51.828;-2.298;2023-02-15T11:21:57;23.77;;;16.40;;
34896;SDS011;43407;51.828;-2.298;2023-02-15T11:24:26;29.92;;;14.43;;
34896;SDS011;43407;51.828;-2.298;2023-02-15T11:29:29;30.10;;;14.20;;
34896;SDS011;43407;51.828;-2.298;2023-02-15T11:31:58;22.48;;;12.32;;
34896;SDS011;43407;51.828;-2.298;2023-02-15T11:34:28;21.73;;;13.55;;
34896;SDS011;43407;51.828;-2.298;2023-02-15T11:36:55;22.52;;;13.18;;
34896;SDS011;43407;51.828;-2.298;2023-02-15T11:39:24;23.88;;;13.35;;
34896;SDS011;43407;51.828;-2.298;2023-02-15T11:41:54;19.58;;;12.60;;
34896;SDS011;43407;51.828;-2.298;2023-02-15T11:44:42;23.38;;;15.70;;
34896;SDS011;43407;51.828;-2.298;2023-02-15T11:47:17;20.95;;;14.10;;
34896;SDS011;43407;51.828;-2.298;2023-02-15T11:49:43;25.67;;;17.33;;
34896;SDS011;43407;51.828;-2.298;2023-02-15T11:52:10;24.27;;;17.55;;
34896;SDS011;43407;51.828;-2.298;2023-02-15T11:54:40;29.23;;;19.80;;
34896;SDS011;43407;51.828;-2.298;2023-02-15T12:01:07;26.40;;;19.15;;
34896;SDS011;43407;51.828;-2.298;2023-02-15T12:03:09;24.17;;;16.80;;
34896;SDS011;43407;51.828;-2.298;2023-02-15T12:05:40;25.77;;;16.13;;
34896;SDS011;43407;51.828;-2.298;2023-02-15T12:11:03;24.85;;;17.17;;
34896;SDS011;43407;51.828;-2.298;2023-02-15T12:13:32;25.02;;;15.57;;
34896;SDS011;43407;51.828;-2.298;2023-02-15T12:15:58;24.02;;;15.57;;
34896;SDS011;43407;51.828;-2.298;2023-02-15T12:18:33;23.13;;;15.23;;
34896;SDS011;43407;51.828;-2.298;2023-02-15T12:21:00;20.52;;;14.10;;
34896;SDS011;43407;51.828;-2.298;2023-02-15T12:23:34;18.73;;;13.18;;
34896;SDS011;43407;51.828;-2.298;2023-02-15T12:26:06;18.70;;;13.02;;
34896;SDS011;43407;51.828;-2.298;2023-02-15T12:28:33;20.48;;;13.30;;
34896;SDS011;43407;51.828;-2.298;2023-02-15T12:31:01;20.63;;;12.57;;
34896;SDS011;43407;51.828;-2.298;2023-02-15T12:33:29;21.88;;;13.07;;
34896;SDS011;43407;51.828;-2.298;2023-02-15T12:36:01;21.27;;;12.38;;
34896;SDS011;43407;51.828;-2.298;2023-02-15T12:38:31;18.92;;;13.30;;
34896;SDS011;43407;51.828;-2.298;2023-02-15T12:40:58;14.90;;;9.77;;
34896;SDS011;43407;51.828;-2.298;2023-02-15T12:46:13;14.35;;;8.27;;
34896;SDS011;43407;51.828;-2.298;2023-02-15T12:48:44;13.70;;;7.95;;
34896;SDS011;43407;51.828;-2.298;2023-02-15T12:51:12;21.73;;;8.25;;
34896;SDS011;43407;51.828;-2.298;2023-02-15T12:53:40;15.95;;;8.45;;
34896;SDS011;43407;51.828;-2.298;2023-02-15T12:56:06;17.45;;;8.65;;
34896;SDS011;43407;51.828;-2.298;2023-02-15T12:58:34;18.13;;;8.93;;
34896;SDS011;43407;51.828;-2.298;2023-02-15T13:04:00;17.83;;;8.57;;
34896;SDS011;43407;51.828;-2.298;2023-02-15T13:06:27;19.83;;;8.68;;
34896;SDS011;43407;51.828;-2.298;2023-02-15T13:08:59;19.23;;;8.25;;
34896;SDS011;43407;51.828;-2.298;2023-02-15T13:11:40;20.67;;;7.53;;
34896;SDS011;43407;51.828;-2.298;2023-02-15T13:14:16;16.27;;;7.38;;
34896;SDS011;43407;51.828;-2.298;2023-02-15T13:16:56;19.08;;;7.57;;
34896;SDS011;43407;51.828;-2.298;2023-02-15T13:19:31;16.50;;;7.57;;
34896;SDS011;43407;51.828;-2.298;2023-02-15T13:22:02;16.83;;;8.40;;
34896;SDS011;43407;51.828;-2.298;2023-02-15T13:24:35;13.38;;;6.18;;
34896;SDS011;43407;51.828;-2.298;2023-02-15T13:27:04;13.98;;;6.82;;
34896;SDS011;43407;51.828;-2.298;2023-02-15T13:29:31;11.25;;;7.28;;
34896;SDS011;43407;51.828;-2.298;2023-02-15T13:32:01;17.83;;;6.55;;
34896;SDS011;43407;51.828;-2.298;2023-02-15T13:34:32;16.55;;;6.30;;
34896;SDS011;43407;51.828;-2.298;2023-02-15T13:39:42;15.15;;;6.93;;
34896;SDS011;43407;51.828;-2.298;2023-02-15T13:47:54;12.68;;;6.07;;
34896;SDS011;43407;51.828;-2.298;2023-02-15T13:51:06;15.65;;;7.28;;
34896;SDS011;43407;51.828;-2.298;2023-02-15T13:59:24;14.27;;;7.05;;
34896;SDS011;43407;51.828;-2.298;2023-02-15T14:05:01;15.30;;;6.65;;
34896;SDS011;43407;51.828;-2.298;2023-02-15T14:16:01;14.02;;;6.93;;
34896;SDS011;43407;51.828;-2.298;2023-02-15T14:26:54;17.52;;;7.03;;
34896;SDS011;43407;51.828;-2.298;2023-02-15T14:29:59;13.77;;;6.93;;
34896;SDS011;43407;51.828;-2.298;2023-02-15T14:32:36;12.88;;;7.10;;
34896;SDS011;43407;51.828;-2.298;2023-02-15T14:35:09;18.15;;;7.72;;
34896;SDS011;43407;51.828;-2.298;2023-02-15T14:40:33;17.60;;;7.60;;
34896;SDS011;43407;51.828;-2.298;2023-02-15T14:43:31;15.18;;;7.65;;
34896;SDS011;43407;51.828;-2.298;2023-02-15T14:48:54;13.02;;;6.18;;
34896;SDS011;43407;51.828;-2.298;2023-02-15T14:54:08;14.15;;;6.95;;
34896;SDS011;43407;51.828;-2.298;2023-02-15T14:56:34;18.33;;;6.90;;
34896;SDS011;43407;51.828;-2.298;2023-02-15T14:59:07;15.85;;;7.20;;
34896;SDS011;43407;51.828;-2.298;2023-02-15T15:01:51;17.25;;;6.93;;
34896;SDS011;43407;51.828;-2.298;2023-02-15T15:04:27;20.17;;;7.90;;
34896;SDS011;43407;51.828;-2.298;2023-02-15T15:09:45;15.05;;;7.32;;
34896;SDS011;43407;51.828;-2.298;2023-02-15T15:14:41;17.70;;;7.85;;
34896;SDS011;43407;51.828;-2.298;2023-02-15T15:17:12;18.48;;;9.15;;
34896;SDS011;43407;51.828;-2.298;2023-02-15T15:19:59;25.70;;;9.63;;
34896;SDS011;43407;51.828;-2.298;2023-02-15T15:22:26;18.00;;;8.88;;
34896;SDS011;43407;51.828;-2.298;2023-02-15T15:32:37;20.80;;;9.60;;
34896;SDS011;43407;51.828;-2.298;2023-02-15T15:49:31;9.63;;;7.40;;
34896;SDS011;43407;51.828;-2.298;2023-02-15T15:52:01;8.40;;;6.22;;
34896;SDS011;43407;51.828;-2.298;2023-02-15T15:54:32;12.98;;;6.57;;
34896;SDS011;43407;51.828;-2.298;2023-02-15T15:56:59;11.13;;;6.25;;
34896;SDS011;43407;51.828;-2.298;2023-02-15T15:59:28;9.70;;;6.97;;
34896;SDS011;43407;51.828;-2.298;2023-02-15T16:01:56;10.52;;;6.28;;
34896;SDS011;43407;51.828;-2.298;2023-02-15T16:04:24;8.32;;;5.60;;
34896;SDS011;43407;51.828;-2.298;2023-02-15T16:06:52;9.95;;;5.28;;
34896;SDS011;43407;51.828;-2.298;2023-02-15T16:09:19;14.15;;;5.80;;
34896;SDS011;43407;51.828;-2.298;2023-02-15T16:11:53;13.80;;;7.47;;
34896;SDS011;43407;51.828;-2.298;2023-02-15T16:14:25;10.57;;;5.72;;
34896;SDS011;43407;51.828;-2.298;2023-02-15T16:16:54;11.45;;;6.40;;
34896;SDS011;43407;51.828;-2.298;2023-02-15T16:19:23;6.70;;;5.82;;
34896;SDS011;43407;51.828;-2.298;2023-02-15T16:21:51;11.60;;;6.88;;
34896;SDS011;43407;51.828;-2.298;2023-02-15T16:24:22;12.32;;;7.80;;
34896;SDS011;43407;51.828;-2.298;2023-02-15T16:26:53;11.13;;;7.57;;
34896;SDS011;43407;51.828;-2.298;2023-02-15T16:29:31;11.30;;;6.50;;
34896;SDS011;43407;51.828;-2.298;2023-02-15T16:34:31;11.02;;;7.53;;
34896;SDS011;43407;51.828;-2.298;2023-02-15T16:37:15;15.63;;;7.72;;
34896;SDS011;43407;51.828;-2.298;2023-02-15T16:39:42;11.60;;;8.32;;
34896;SDS011;43407;51.828;-2.298;2023-02-15T16:42:10;12.23;;;8.77;;
34896;SDS011;43407;51.828;-2.298;2023-02-15T16:44:36;13.15;;;7.30;;
34896;SDS011;43407;51.828;-2.298;2023-02-15T16:47:02;11.95;;;7.28;;
34896;SDS011;43407;51.828;-2.298;2023-02-15T16:49:28;11.30;;;8.02;;
34896;SDS011;43407;51.828;-2.298;2023-02-15T16:51:58;10.43;;;6.88;;
34896;SDS011;43407;51.828;-2.298;2023-02-15T16:54:25;11.43;;;7.13;;
34896;SDS011;43407;51.828;-2.298;2023-02-15T16:56:51;11.77;;;7.50;;
34896;SDS011;43407;51.828;-2.298;2023-02-15T16:59:37;14.65;;;7.35;;
34896;SDS011;43407;51.828;-2.298;2023-02-15T17:02:16;8.00;;;7.00;;
34896;SDS011;43407;51.828;-2.298;2023-02-15T17:05:45;7.65;;;6.78;;
34896;SDS011;43407;51.828;-2.298;2023-02-15T17:07:51;10.82;;;7.35;;
34896;SDS011;43407;51.828;-2.298;2023-02-15T17:10:34;9.77;;;6.63;;
34896;SDS011;43407;51.828;-2.298;2023-02-15T17:13:11;10.00;;;7.70;;
34896;SDS011;43407;51.828;-2.298;2023-02-15T17:15:41;11.98;;;8.10;;
34896;SDS011;43407;51.828;-2.298;2023-02-15T17:20:40;12.15;;;8.60;;
34896;SDS011;43407;51.828;-2.298;2023-02-15T17:23:07;12.77;;;9.13;;
34896;SDS011;43407;51.828;-2.298;2023-02-15T17:25:56;10.43;;;8.90;;
34896;SDS011;43407;51.828;-2.298;2023-02-15T17:28:29;12.93;;;9.63;;
34896;SDS011;43407;51.828;-2.298;2023-02-15T17:30:55;12.20;;;10.15;;